sensor_id;sensor_type;location;lat;lon;timestamp;P1;durP1;ratioP1;P2;durP2;ratioP2
26824;SDS011;14402;48.178;11.566;2023-02-07T00:00:23;12.8;;;11.5;;
26824;SDS011;14402;48.178;11.566;2023-02-07T00:00:53;12.8;;;11.5;;
26824;SDS011;14402;48.178;11.566;2023-02-07T00:01:24;12.6;;;11.4;;
26824;SDS011;14402;48.178;11.566;2023-02-07T00:01:53;12.5;;;11.3;;
26824;SDS011;14402;48.178;11.566;2023-02-07T00:02:23;12.5;;;11.3;;
26824;SDS011;14402;48.178;11.566;2023-02-07T00:02:53;12.5;;;11.3;;
26824;SDS011;14402;48.178;11.566;2023-02-07T00:03:23;12.9;;;11.6;;
26824;SDS011;14402;48.178;11.566;2023-02-07T00:03:54;13.2;;;11.9;;
26824;SDS011;14402;48.178;11.566;2023-02-07T00:04:24;13.2;;;11.9;;
26824;SDS011;14402;48.178;11.566;2023-02-07T00:04:54;13.2;;;11.9;;
26824;SDS011;14402;48.178;11.566;2023-02-07T00:05:24;13.2;;;11.9;;
26824;SDS011;14402;48.178;11.566;2023-02-07T00:05:54;13.2;;;11.9;;
26824;SDS011;14402;48.178;11.566;2023-02-07T00:06:25;13.2;;;11.9;;
26824;SDS011;14402;48.178;11.566;2023-02-07T00:06:54;13.2;;;11.9;;
26824;SDS011;14402;48.178;11.566;2023-02-07T00:07:24;12.9;;;11.6;;
26824;SDS011;14402;48.178;11.566;2023-02-07T00:07:54;12.7;;;11.4;;
26824;SDS011;14402;48.178;11.566;2023-02-07T00:08:24;12.7;;;11.4;;
26824;SDS011;14402;48.178;11.566;2023-02-07T00:08:55;12.7;;;11.4;;
26824;SDS011;14402;48.178;11.566;2023-02-07T00:09:24;12.6;;;11.4;;
26824;SDS011;14402;48.178;11.566;2023-02-07T00:09:55;12.5;;;11.3;;
26824;SDS011;14402;48.178;11.566;2023-02-07T00:10:25;12.5;;;11.3;;
26824;SDS011;14402;48.178;11.566;2023-02-07T00:10:55;12.5;;;11.3;;
26824;SDS011;14402;48.178;11.566;2023-02-07T00:11:25;12.6;;;11.4;;
26824;SDS011;14402;48.178;11.566;2023-02-07T00:11:55;12.6;;;11.4;;
26824;SDS011;14402;48.178;11.566;2023-02-07T00:12:25;12.6;;;11.4;;
26824;SDS011;14402;48.178;11.566;2023-02-07T00:12:55;12.6;;;11.4;;
26824;SDS011;14402;48.178;11.566;2023-02-07T00:13:25;12.6;;;11.4;;
26824;SDS011;14402;48.178;11.566;2023-02-07T00:13:56;12.7;;;11.5;;
26824;SDS011;14402;48.178;11.566;2023-02-07T00:14:25;12.7;;;11.5;;
26824;SDS011;14402;48.178;11.566;2023-02-07T00:14:55;12.7;;;11.5;;
26824;SDS011;14402;48.178;11.566;2023-02-07T00:15:26;12.5;;;11.2;;
26824;SDS011;14402;48.178;11.566;2023-02-07T00:15:56;12.3;;;11.0;;
26824;SDS011;14402;48.178;11.566;2023-02-07T00:16:26;12.3;;;11.0;;
26824;SDS011;14402;48.178;11.566;2023-02-07T00:16:56;12.3;;;11.0;;
26824;SDS011;14402;48.178;11.566;2023-02-07T00:17:27;12.1;;;10.9;;
26824;SDS011;14402;48.178;11.566;2023-02-07T00:17:56;11.9;;;10.7;;
26824;SDS011;14402;48.178;11.566;2023-02-07T00:18:26;11.9;;;10.7;;
26824;SDS011;14402;48.178;11.566;2023-02-07T00:18:56;11.9;;;10.7;;
26824;SDS011;14402;48.178;11.566;2023-02-07T00:19:26;12.2;;;11.0;;
26824;SDS011;14402;48.178;11.566;2023-02-07T00:19:56;12.6;;;11.3;;
26824;SDS011;14402;48.178;11.566;2023-02-07T00:20:27;12.6;;;11.3;;
26824;SDS011;14402;48.178;11.566;2023-02-07T00:20:57;12.6;;;11.3;;
26824;SDS011;14402;48.178;11.566;2023-02-07T00:21:27;12.8;;;11.5;;
26824;SDS011;14402;48.178;11.566;2023-02-07T00:21:57;13.0;;;11.7;;
26824;SDS011;14402;48.178;11.566;2023-02-07T00:22:27;13.0;;;11.7;;
26824;SDS011;14402;48.178;11.566;2023-02-07T00:22:57;13.0;;;11.7;;
26824;SDS011;14402;48.178;11.566;2023-02-07T00:23:27;12.9;;;11.6;;
26824;SDS011;14402;48.178;11.566;2023-02-07T00:23:57;12.8;;;11.5;;
26824;SDS011;14402;48.178;11.566;2023-02-07T00:24:27;12.8;;;11.5;;
26824;SDS011;14402;48.178;11.566;2023-02-07T00:24:57;12.8;;;11.5;;
26824;SDS011;14402;48.178;11.566;2023-02-07T00:25:27;12.6;;;11.2;;
26824;SDS011;14402;48.178;11.566;2023-02-07T00:25:58;12.3;;;11.0;;
26824;SDS011;14402;48.178;11.566;2023-02-07T00:26:27;12.3;;;11.0;;
26824;SDS011;14402;48.178;11.566;2023-02-07T00:26:58;12.3;;;11.0;;
26824;SDS011;14402;48.178;11.566;2023-02-07T00:27:28;12.6;;;11.2;;
26824;SDS011;14402;48.178;11.566;2023-02-07T00:27:58;12.9;;;11.5;;
26824;SDS011;14402;48.178;11.566;2023-02-07T00:28:28;12.9;;;11.5;;
26824;SDS011;14402;48.178;11.566;2023-02-07T00:28:58;12.9;;;11.5;;
26824;SDS011;14402;48.178;11.566;2023-02-07T00:29:28;12.7;;;11.4;;
26824;SDS011;14402;48.178;11.566;2023-02-07T00:29:58;12.5;;;11.3;;
26824;SDS011;14402;48.178;11.566;2023-02-07T00:30:28;12.5;;;11.3;;
26824;SDS011;14402;48.178;11.566;2023-02-07T00:31:02;12.5;;;11.3;;
26824;SDS011;14402;48.178;11.566;2023-02-07T00:31:29;12.4;;;11.1;;
26824;SDS011;14402;48.178;11.566;2023-02-07T00:31:58;12.3;;;11.0;;
26824;SDS011;14402;48.178;11.566;2023-02-07T00:32:29;12.3;;;11.0;;
26824;SDS011;14402;48.178;11.566;2023-02-07T00:32:59;12.3;;;11.0;;
26824;SDS011;14402;48.178;11.566;2023-02-07T00:33:29;12.3;;;11.1;;
26824;SDS011;14402;48.178;11.566;2023-02-07T00:34:00;12.3;;;11.1;;
26824;SDS011;14402;48.178;11.566;2023-02-07T00:34:29;12.3;;;11.1;;
26824;SDS011;14402;48.178;11.566;2023-02-07T00:34:59;12.3;;;11.1;;
26824;SDS011;14402;48.178;11.566;2023-02-07T00:35:29;12.2;;;11.1;;
26824;SDS011;14402;48.178;11.566;2023-02-07T00:36:00;12.2;;;11.0;;
26824;SDS011;14402;48.178;11.566;2023-02-07T00:36:30;12.2;;;11.0;;
26824;SDS011;14402;48.178;11.566;2023-02-07T00:36:59;12.2;;;11.0;;
26824;SDS011;14402;48.178;11.566;2023-02-07T00:37:29;12.2;;;11.0;;
26824;SDS011;14402;48.178;11.566;2023-02-07T00:38:00;12.3;;;11.0;;
26824;SDS011;14402;48.178;11.566;2023-02-07T00:38:30;12.3;;;11.0;;
26824;SDS011;14402;48.178;11.566;2023-02-07T00:39:00;12.3;;;11.0;;
26824;SDS011;14402;48.178;11.566;2023-02-07T00:39:30;12.1;;;10.9;;
26824;SDS011;14402;48.178;11.566;2023-02-07T00:40:00;11.9;;;10.7;;
26824;SDS011;14402;48.178;11.566;2023-02-07T00:40:30;11.9;;;10.7;;
26824;SDS011;14402;48.178;11.566;2023-02-07T00:41:00;11.9;;;10.7;;
26824;SDS011;14402;48.178;11.566;2023-02-07T00:41:30;12.0;;;10.8;;
26824;SDS011;14402;48.178;11.566;2023-02-07T00:42:00;12.1;;;10.8;;
26824;SDS011;14402;48.178;11.566;2023-02-07T00:42:30;12.1;;;10.8;;
26824;SDS011;14402;48.178;11.566;2023-02-07T00:43:01;12.1;;;10.8;;
26824;SDS011;14402;48.178;11.566;2023-02-07T00:43:30;12.1;;;10.8;;
26824;SDS011;14402;48.178;11.566;2023-02-07T00:44:01;12.0;;;10.8;;
26824;SDS011;14402;48.178;11.566;2023-02-07T00:44:31;12.0;;;10.8;;
26824;SDS011;14402;48.178;11.566;2023-02-07T00:45:01;12.0;;;10.8;;
26824;SDS011;14402;48.178;11.566;2023-02-07T00:45:31;11.9;;;10.7;;
26824;SDS011;14402;48.178;11.566;2023-02-07T00:46:02;11.8;;;10.6;;
26824;SDS011;14402;48.178;11.566;2023-02-07T00:46:31;11.8;;;10.6;;
26824;SDS011;14402;48.178;11.566;2023-02-07T00:47:01;11.8;;;10.6;;
26824;SDS011;14402;48.178;11.566;2023-02-07T00:47:31;11.9;;;10.7;;
26824;SDS011;14402;48.178;11.566;2023-02-07T00:48:01;12.0;;;10.8;;
26824;SDS011;14402;48.178;11.566;2023-02-07T00:48:32;12.0;;;10.8;;
26824;SDS011;14402;48.178;11.566;2023-02-07T00:49:02;12.0;;;10.8;;
26824;SDS011;14402;48.178;11.566;2023-02-07T00:49:31;12.0;;;10.8;;
26824;SDS011;14402;48.178;11.566;2023-02-07T00:50:02;12.0;;;10.8;;
26824;SDS011;14402;48.178;11.566;2023-02-07T00:50:32;12.0;;;10.8;;
26824;SDS011;14402;48.178;11.566;2023-02-07T00:51:02;12.0;;;10.8;;
26824;SDS011;14402;48.178;11.566;2023-02-07T00:51:32;11.8;;;10.6;;
26824;SDS011;14402;48.178;11.566;2023-02-07T00:52:02;11.6;;;10.4;;
26824;SDS011;14402;48.178;11.566;2023-02-07T00:52:32;11.6;;;10.4;;
26824;SDS011;14402;48.178;11.566;2023-02-07T00:53:02;11.6;;;10.4;;
26824;SDS011;14402;48.178;11.566;2023-02-07T00:53:32;11.6;;;10.4;;
26824;SDS011;14402;48.178;11.566;2023-02-07T00:54:02;11.7;;;10.5;;
26824;SDS011;14402;48.178;11.566;2023-02-07T00:54:32;11.7;;;10.5;;
26824;SDS011;14402;48.178;11.566;2023-02-07T00:55:03;11.7;;;10.5;;
26824;SDS011;14402;48.178;11.566;2023-02-07T00:55:33;12.3;;;11.0;;
26824;SDS011;14402;48.178;11.566;2023-02-07T00:56:03;12.9;;;11.5;;
26824;SDS011;14402;48.178;11.566;2023-02-07T00:56:33;12.9;;;11.5;;
26824;SDS011;14402;48.178;11.566;2023-02-07T00:57:03;12.9;;;11.5;;
26824;SDS011;14402;48.178;11.566;2023-02-07T00:57:33;12.4;;;11.1;;
26824;SDS011;14402;48.178;11.566;2023-02-07T00:58:03;12.0;;;10.7;;
26824;SDS011;14402;48.178;11.566;2023-02-07T00:58:33;12.0;;;10.7;;
26824;SDS011;14402;48.178;11.566;2023-02-07T00:59:03;12.0;;;10.7;;
26824;SDS011;14402;48.178;11.566;2023-02-07T00:59:33;11.9;;;10.6;;
26824;SDS011;14402;48.178;11.566;2023-02-07T01:00:04;11.8;;;10.5;;
26824;SDS011;14402;48.178;11.566;2023-02-07T01:00:33;11.8;;;10.5;;
26824;SDS011;14402;48.178;11.566;2023-02-07T01:01:04;11.8;;;10.5;;
26824;SDS011;14402;48.178;11.566;2023-02-07T01:01:34;11.8;;;10.4;;
26824;SDS011;14402;48.178;11.566;2023-02-07T01:02:04;11.8;;;10.4;;
26824;SDS011;14402;48.178;11.566;2023-02-07T01:02:34;11.8;;;10.4;;
26824;SDS011;14402;48.178;11.566;2023-02-07T01:03:04;11.8;;;10.4;;
26824;SDS011;14402;48.178;11.566;2023-02-07T01:03:34;11.8;;;10.4;;
26824;SDS011;14402;48.178;11.566;2023-02-07T01:04:04;11.7;;;10.5;;
26824;SDS011;14402;48.178;11.566;2023-02-07T01:04:34;11.7;;;10.5;;
26824;SDS011;14402;48.178;11.566;2023-02-07T01:05:04;11.7;;;10.5;;
26824;SDS011;14402;48.178;11.566;2023-02-07T01:05:34;11.8;;;10.6;;
26824;SDS011;14402;48.178;11.566;2023-02-07T01:06:05;11.9;;;10.6;;
26824;SDS011;14402;48.178;11.566;2023-02-07T01:06:35;11.9;;;10.6;;
26824;SDS011;14402;48.178;11.566;2023-02-07T01:07:05;11.9;;;10.6;;
26824;SDS011;14402;48.178;11.566;2023-02-07T01:07:35;11.6;;;10.5;;
26824;SDS011;14402;48.178;11.566;2023-02-07T01:08:05;11.4;;;10.3;;
26824;SDS011;14402;48.178;11.566;2023-02-07T01:08:35;11.4;;;10.3;;
26824;SDS011;14402;48.178;11.566;2023-02-07T01:09:05;11.4;;;10.3;;
26824;SDS011;14402;48.178;11.566;2023-02-07T01:09:35;11.3;;;10.2;;
26824;SDS011;14402;48.178;11.566;2023-02-07T01:10:05;11.2;;;10.1;;
26824;SDS011;14402;48.178;11.566;2023-02-07T01:10:37;11.2;;;10.1;;
26824;SDS011;14402;48.178;11.566;2023-02-07T01:11:06;11.2;;;10.1;;
26824;SDS011;14402;48.178;11.566;2023-02-07T01:11:35;11.3;;;10.1;;
26824;SDS011;14402;48.178;11.566;2023-02-07T01:12:06;11.4;;;10.2;;
26824;SDS011;14402;48.178;11.566;2023-02-07T01:12:36;11.4;;;10.2;;
26824;SDS011;14402;48.178;11.566;2023-02-07T01:13:06;11.4;;;10.2;;
26824;SDS011;14402;48.178;11.566;2023-02-07T01:13:36;11.8;;;10.1;;
26824;SDS011;14402;48.178;11.566;2023-02-07T01:14:06;12.1;;;10.1;;
26824;SDS011;14402;48.178;11.566;2023-02-07T01:14:36;12.1;;;10.1;;
26824;SDS011;14402;48.178;11.566;2023-02-07T01:15:06;12.1;;;10.1;;
26824;SDS011;14402;48.178;11.566;2023-02-07T01:15:36;11.9;;;10.3;;
26824;SDS011;14402;48.178;11.566;2023-02-07T01:16:06;11.7;;;10.5;;
26824;SDS011;14402;48.178;11.566;2023-02-07T01:16:36;11.7;;;10.5;;
26824;SDS011;14402;48.178;11.566;2023-02-07T01:17:08;11.7;;;10.5;;
26824;SDS011;14402;48.178;11.566;2023-02-07T01:17:36;11.5;;;10.4;;
26824;SDS011;14402;48.178;11.566;2023-02-07T01:18:07;11.4;;;10.2;;
26824;SDS011;14402;48.178;11.566;2023-02-07T01:18:37;11.4;;;10.2;;
26824;SDS011;14402;48.178;11.566;2023-02-07T01:19:08;11.4;;;10.2;;
26824;SDS011;14402;48.178;11.566;2023-02-07T01:19:37;11.4;;;10.1;;
26824;SDS011;14402;48.178;11.566;2023-02-07T01:20:07;11.3;;;10.1;;
26824;SDS011;14402;48.178;11.566;2023-02-07T01:20:37;11.3;;;10.1;;
26824;SDS011;14402;48.178;11.566;2023-02-07T01:21:12;11.3;;;10.1;;
26824;SDS011;14402;48.178;11.566;2023-02-07T01:21:37;11.1;;;10.0;;
26824;SDS011;14402;48.178;11.566;2023-02-07T01:22:07;10.9;;;9.9;;
26824;SDS011;14402;48.178;11.566;2023-02-07T01:22:38;10.9;;;9.9;;
26824;SDS011;14402;48.178;11.566;2023-02-07T01:23:08;10.9;;;9.9;;
26824;SDS011;14402;48.178;11.566;2023-02-07T01:23:38;11.2;;;10.1;;
26824;SDS011;14402;48.178;11.566;2023-02-07T01:24:08;11.5;;;10.3;;
26824;SDS011;14402;48.178;11.566;2023-02-07T01:24:38;11.5;;;10.3;;
26824;SDS011;14402;48.178;11.566;2023-02-07T01:25:08;11.5;;;10.3;;
26824;SDS011;14402;48.178;11.566;2023-02-07T01:25:38;11.9;;;10.1;;
26824;SDS011;14402;48.178;11.566;2023-02-07T01:26:08;12.2;;;10.0;;
26824;SDS011;14402;48.178;11.566;2023-02-07T01:26:38;12.2;;;10.0;;
26824;SDS011;14402;48.178;11.566;2023-02-07T01:27:08;12.2;;;10.0;;
26824;SDS011;14402;48.178;11.566;2023-02-07T01:27:38;12.6;;;10.1;;
26824;SDS011;14402;48.178;11.566;2023-02-07T01:28:08;13.0;;;10.3;;
26824;SDS011;14402;48.178;11.566;2023-02-07T01:28:38;13.0;;;10.3;;
26824;SDS011;14402;48.178;11.566;2023-02-07T01:29:09;13.0;;;10.3;;
26824;SDS011;14402;48.178;11.566;2023-02-07T01:29:39;12.2;;;10.3;;
26824;SDS011;14402;48.178;11.566;2023-02-07T01:30:09;11.4;;;10.3;;
26824;SDS011;14402;48.178;11.566;2023-02-07T01:30:39;11.4;;;10.3;;
26824;SDS011;14402;48.178;11.566;2023-02-07T01:31:10;11.4;;;10.3;;
26824;SDS011;14402;48.178;11.566;2023-02-07T01:31:39;11.1;;;10.0;;
26824;SDS011;14402;48.178;11.566;2023-02-07T01:32:09;10.8;;;9.7;;
26824;SDS011;14402;48.178;11.566;2023-02-07T01:32:39;10.8;;;9.7;;
26824;SDS011;14402;48.178;11.566;2023-02-07T01:33:09;10.8;;;9.7;;
26824;SDS011;14402;48.178;11.566;2023-02-07T01:33:39;10.9;;;9.8;;
26824;SDS011;14402;48.178;11.566;2023-02-07T01:34:10;11.0;;;9.9;;
26824;SDS011;14402;48.178;11.566;2023-02-07T01:34:40;11.0;;;9.9;;
26824;SDS011;14402;48.178;11.566;2023-02-07T01:35:10;11.0;;;9.9;;
26824;SDS011;14402;48.178;11.566;2023-02-07T01:35:40;11.1;;;9.8;;
26824;SDS011;14402;48.178;11.566;2023-02-07T01:36:11;11.2;;;9.7;;
26824;SDS011;14402;48.178;11.566;2023-02-07T01:36:40;11.2;;;9.7;;
26824;SDS011;14402;48.178;11.566;2023-02-07T01:37:10;11.2;;;9.7;;
26824;SDS011;14402;48.178;11.566;2023-02-07T01:37:40;11.2;;;9.9;;
26824;SDS011;14402;48.178;11.566;2023-02-07T01:38:10;11.3;;;10.0;;
26824;SDS011;14402;48.178;11.566;2023-02-07T01:38:40;11.3;;;10.0;;
26824;SDS011;14402;48.178;11.566;2023-02-07T01:39:10;11.3;;;10.0;;
26824;SDS011;14402;48.178;11.566;2023-02-07T01:39:40;11.6;;;10.0;;
26824;SDS011;14402;48.178;11.566;2023-02-07T01:40:11;12.0;;;10.0;;
26824;SDS011;14402;48.178;11.566;2023-02-07T01:40:41;12.0;;;10.0;;
26824;SDS011;14402;48.178;11.566;2023-02-07T01:41:11;12.0;;;10.0;;
26824;SDS011;14402;48.178;11.566;2023-02-07T01:41:41;11.5;;;9.9;;
26824;SDS011;14402;48.178;11.566;2023-02-07T01:42:12;11.0;;;9.8;;
26824;SDS011;14402;48.178;11.566;2023-02-07T01:42:41;11.0;;;9.8;;
26824;SDS011;14402;48.178;11.566;2023-02-07T01:43:13;11.4;;;10.1;;
26824;SDS011;14402;48.178;11.566;2023-02-07T01:43:58;11.7;;;10.3;;
26824;SDS011;14402;48.178;11.566;2023-02-07T01:44:56;11.7;;;10.3;;
26824;SDS011;14402;48.178;11.566;2023-02-07T01:44:58;11.7;;;10.3;;
26824;SDS011;14402;48.178;11.566;2023-02-07T01:45:15;11.6;;;10.4;;
26824;SDS011;14402;48.178;11.566;2023-02-07T01:45:41;11.6;;;10.4;;
26824;SDS011;14402;48.178;11.566;2023-02-07T01:46:12;11.6;;;10.4;;
26824;SDS011;14402;48.178;11.566;2023-02-07T01:46:42;11.6;;;10.4;;
26824;SDS011;14402;48.178;11.566;2023-02-07T01:47:14;11.2;;;10.1;;
26824;SDS011;14402;48.178;11.566;2023-02-07T01:47:42;10.9;;;9.8;;
26824;SDS011;14402;48.178;11.566;2023-02-07T01:48:12;10.9;;;9.8;;
26824;SDS011;14402;48.178;11.566;2023-02-07T01:48:42;10.9;;;9.8;;
26824;SDS011;14402;48.178;11.566;2023-02-07T01:49:12;11.2;;;10.1;;
26824;SDS011;14402;48.178;11.566;2023-02-07T01:49:42;11.6;;;10.4;;
26824;SDS011;14402;48.178;11.566;2023-02-07T01:50:12;11.6;;;10.4;;
26824;SDS011;14402;48.178;11.566;2023-02-07T01:50:43;11.6;;;10.4;;
26824;SDS011;14402;48.178;11.566;2023-02-07T01:51:12;11.1;;;10.0;;
26824;SDS011;14402;48.178;11.566;2023-02-07T01:51:43;10.6;;;9.6;;
26824;SDS011;14402;48.178;11.566;2023-02-07T01:52:14;10.6;;;9.6;;
26824;SDS011;14402;48.178;11.566;2023-02-07T01:52:43;10.6;;;9.6;;
26824;SDS011;14402;48.178;11.566;2023-02-07T01:53:13;11.0;;;9.7;;
26824;SDS011;14402;48.178;11.566;2023-02-07T01:53:43;11.4;;;9.8;;
26824;SDS011;14402;48.178;11.566;2023-02-07T01:54:13;11.4;;;9.8;;
26824;SDS011;14402;48.178;11.566;2023-02-07T01:54:43;11.4;;;9.8;;
26824;SDS011;14402;48.178;11.566;2023-02-07T01:55:14;11.8;;;10.1;;
26824;SDS011;14402;48.178;11.566;2023-02-07T01:55:44;12.1;;;10.4;;
26824;SDS011;14402;48.178;11.566;2023-02-07T01:56:13;12.1;;;10.4;;
26824;SDS011;14402;48.178;11.566;2023-02-07T01:56:44;12.1;;;10.4;;
26824;SDS011;14402;48.178;11.566;2023-02-07T01:57:14;11.8;;;10.3;;
26824;SDS011;14402;48.178;11.566;2023-02-07T01:57:44;11.4;;;10.2;;
26824;SDS011;14402;48.178;11.566;2023-02-07T01:58:14;11.4;;;10.2;;
26824;SDS011;14402;48.178;11.566;2023-02-07T01:58:44;11.4;;;10.2;;
26824;SDS011;14402;48.178;11.566;2023-02-07T01:59:14;11.4;;;10.2;;
26824;SDS011;14402;48.178;11.566;2023-02-07T01:59:44;11.5;;;10.2;;
26824;SDS011;14402;48.178;11.566;2023-02-07T02:00:14;11.5;;;10.2;;
26824;SDS011;14402;48.178;11.566;2023-02-07T02:00:44;11.5;;;10.2;;
26824;SDS011;14402;48.178;11.566;2023-02-07T02:01:16;11.5;;;10.2;;
26824;SDS011;14402;48.178;11.566;2023-02-07T02:01:44;11.5;;;10.3;;
26824;SDS011;14402;48.178;11.566;2023-02-07T02:02:15;11.5;;;10.3;;
26824;SDS011;14402;48.178;11.566;2023-02-07T02:02:44;11.5;;;10.3;;
26824;SDS011;14402;48.178;11.566;2023-02-07T02:03:14;11.4;;;10.2;;
26824;SDS011;14402;48.178;11.566;2023-02-07T02:03:46;11.3;;;10.1;;
26824;SDS011;14402;48.178;11.566;2023-02-07T02:04:15;11.3;;;10.1;;
26824;SDS011;14402;48.178;11.566;2023-02-07T02:04:45;11.3;;;10.1;;
26824;SDS011;14402;48.178;11.566;2023-02-07T02:05:15;11.2;;;10.1;;
26824;SDS011;14402;48.178;11.566;2023-02-07T02:05:45;11.2;;;10.0;;
26824;SDS011;14402;48.178;11.566;2023-02-07T02:06:15;11.2;;;10.0;;
26824;SDS011;14402;48.178;11.566;2023-02-07T02:06:45;11.2;;;10.0;;
26824;SDS011;14402;48.178;11.566;2023-02-07T02:07:15;11.1;;;9.9;;
26824;SDS011;14402;48.178;11.566;2023-02-07T02:07:45;11.1;;;9.9;;
26824;SDS011;14402;48.178;11.566;2023-02-07T02:08:15;11.1;;;9.9;;
26824;SDS011;14402;48.178;11.566;2023-02-07T02:08:46;11.1;;;9.9;;
26824;SDS011;14402;48.178;11.566;2023-02-07T02:09:15;11.4;;;10.2;;
26824;SDS011;14402;48.178;11.566;2023-02-07T02:09:46;11.7;;;10.5;;
26824;SDS011;14402;48.178;11.566;2023-02-07T02:10:17;11.7;;;10.5;;
26824;SDS011;14402;48.178;11.566;2023-02-07T02:10:49;11.7;;;10.5;;
26824;SDS011;14402;48.178;11.566;2023-02-07T02:11:20;11.8;;;10.5;;
26824;SDS011;14402;48.178;11.566;2023-02-07T02:11:51;11.8;;;10.5;;
26824;SDS011;14402;48.178;11.566;2023-02-07T02:12:21;11.8;;;10.5;;
26824;SDS011;14402;48.178;11.566;2023-02-07T02:12:50;11.8;;;10.5;;
26824;SDS011;14402;48.178;11.566;2023-02-07T02:13:17;11.6;;;10.4;;
26824;SDS011;14402;48.178;11.566;2023-02-07T02:13:48;11.3;;;10.2;;
26824;SDS011;14402;48.178;11.566;2023-02-07T02:14:20;11.3;;;10.2;;
26824;SDS011;14402;48.178;11.566;2023-02-07T02:14:51;11.3;;;10.2;;
26824;SDS011;14402;48.178;11.566;2023-02-07T02:15:21;11.9;;;10.1;;
26824;SDS011;14402;48.178;11.566;2023-02-07T02:15:49;12.5;;;10.0;;
26824;SDS011;14402;48.178;11.566;2023-02-07T02:16:18;12.5;;;10.0;;
26824;SDS011;14402;48.178;11.566;2023-02-07T02:16:49;12.5;;;10.0;;
26824;SDS011;14402;48.178;11.566;2023-02-07T02:17:20;11.9;;;10.1;;
26824;SDS011;14402;48.178;11.566;2023-02-07T02:17:50;11.3;;;10.1;;
26824;SDS011;14402;48.178;11.566;2023-02-07T02:18:22;11.3;;;10.1;;
26824;SDS011;14402;48.178;11.566;2023-02-07T02:18:53;11.3;;;10.1;;
26824;SDS011;14402;48.178;11.566;2023-02-07T02:19:24;11.4;;;10.2;;
26824;SDS011;14402;48.178;11.566;2023-02-07T02:20:00;11.5;;;10.3;;
26824;SDS011;14402;48.178;11.566;2023-02-07T02:20:25;11.5;;;10.3;;
26824;SDS011;14402;48.178;11.566;2023-02-07T02:21:03;11.5;;;10.3;;
26824;SDS011;14402;48.178;11.566;2023-02-07T02:21:25;12.1;;;10.6;;
26824;SDS011;14402;48.178;11.566;2023-02-07T02:21:57;12.6;;;10.8;;
26824;SDS011;14402;48.178;11.566;2023-02-07T02:22:23;12.6;;;10.8;;
26824;SDS011;14402;48.178;11.566;2023-02-07T02:22:52;12.6;;;10.8;;
26824;SDS011;14402;48.178;11.566;2023-02-07T02:23:19;12.2;;;10.6;;
26824;SDS011;14402;48.178;11.566;2023-02-07T02:23:53;11.9;;;10.5;;
26824;SDS011;14402;48.178;11.566;2023-02-07T02:24:27;11.9;;;10.5;;
26824;SDS011;14402;48.178;11.566;2023-02-07T02:25:02;11.9;;;10.5;;
26824;SDS011;14402;48.178;11.566;2023-02-07T02:25:32;11.9;;;10.6;;
26824;SDS011;14402;48.178;11.566;2023-02-07T02:25:54;11.8;;;10.6;;
26824;SDS011;14402;48.178;11.566;2023-02-07T02:26:26;11.8;;;10.6;;
26824;SDS011;14402;48.178;11.566;2023-02-07T02:26:53;11.8;;;10.6;;
26824;SDS011;14402;48.178;11.566;2023-02-07T02:27:21;12.0;;;10.7;;
26824;SDS011;14402;48.178;11.566;2023-02-07T02:27:59;12.1;;;10.8;;
26824;SDS011;14402;48.178;11.566;2023-02-07T02:28:23;12.1;;;10.8;;
26824;SDS011;14402;48.178;11.566;2023-02-07T02:29:27;12.1;;;10.8;;
26824;SDS011;14402;48.178;11.566;2023-02-07T02:29:30;12.1;;;10.8;;
26824;SDS011;14402;48.178;11.566;2023-02-07T02:29:58;12.0;;;10.8;;
26824;SDS011;14402;48.178;11.566;2023-02-07T02:30:38;12.0;;;10.8;;
26824;SDS011;14402;48.178;11.566;2023-02-07T02:31:01;12.0;;;10.8;;
26824;SDS011;14402;48.178;11.566;2023-02-07T02:31:26;12.0;;;10.8;;
26824;SDS011;14402;48.178;11.566;2023-02-07T02:32:02;12.0;;;10.7;;
26824;SDS011;14402;48.178;11.566;2023-02-07T02:32:34;12.0;;;10.7;;
26824;SDS011;14402;48.178;11.566;2023-02-07T02:32:56;12.0;;;10.7;;
26824;SDS011;14402;48.178;11.566;2023-02-07T02:33:23;12.8;;;10.6;;
26824;SDS011;14402;48.178;11.566;2023-02-07T02:33:50;13.5;;;10.6;;
26824;SDS011;14402;48.178;11.566;2023-02-07T02:34:21;13.5;;;10.6;;
26824;SDS011;14402;48.178;11.566;2023-02-07T02:34:51;13.5;;;10.6;;
26824;SDS011;14402;48.178;11.566;2023-02-07T02:35:21;12.7;;;10.6;;
26824;SDS011;14402;48.178;11.566;2023-02-07T02:35:53;11.9;;;10.6;;
26824;SDS011;14402;48.178;11.566;2023-02-07T02:36:22;11.9;;;10.6;;
26824;SDS011;14402;48.178;11.566;2023-02-07T02:36:51;11.9;;;10.6;;
26824;SDS011;14402;48.178;11.566;2023-02-07T02:37:22;11.8;;;10.5;;
26824;SDS011;14402;48.178;11.566;2023-02-07T02:37:51;11.6;;;10.4;;
26824;SDS011;14402;48.178;11.566;2023-02-07T02:38:24;11.6;;;10.4;;
26824;SDS011;14402;48.178;11.566;2023-02-07T02:38:52;11.6;;;10.4;;
26824;SDS011;14402;48.178;11.566;2023-02-07T02:39:22;11.6;;;10.4;;
26824;SDS011;14402;48.178;11.566;2023-02-07T02:39:52;11.5;;;10.3;;
26824;SDS011;14402;48.178;11.566;2023-02-07T02:40:23;11.5;;;10.3;;
26824;SDS011;14402;48.178;11.566;2023-02-07T02:40:52;11.5;;;10.3;;
26824;SDS011;14402;48.178;11.566;2023-02-07T02:41:22;12.4;;;10.6;;
26824;SDS011;14402;48.178;11.566;2023-02-07T02:41:53;13.4;;;11.0;;
26824;SDS011;14402;48.178;11.566;2023-02-07T02:42:23;13.4;;;11.0;;
26824;SDS011;14402;48.178;11.566;2023-02-07T02:42:52;13.4;;;11.0;;
26824;SDS011;14402;48.178;11.566;2023-02-07T02:43:24;12.9;;;10.9;;
26824;SDS011;14402;48.178;11.566;2023-02-07T02:43:52;12.5;;;10.7;;
26824;SDS011;14402;48.178;11.566;2023-02-07T02:44:23;12.5;;;10.7;;
26824;SDS011;14402;48.178;11.566;2023-02-07T02:44:53;12.5;;;10.7;;
26824;SDS011;14402;48.178;11.566;2023-02-07T02:45:24;13.1;;;11.0;;
26824;SDS011;14402;48.178;11.566;2023-02-07T02:45:54;13.8;;;11.3;;
26824;SDS011;14402;48.178;11.566;2023-02-07T02:46:23;13.8;;;11.3;;
26824;SDS011;14402;48.178;11.566;2023-02-07T02:46:52;13.8;;;11.3;;
26824;SDS011;14402;48.178;11.566;2023-02-07T02:47:22;12.8;;;11.0;;
26824;SDS011;14402;48.178;11.566;2023-02-07T02:47:52;11.8;;;10.6;;
26824;SDS011;14402;48.178;11.566;2023-02-07T02:48:23;11.8;;;10.6;;
26824;SDS011;14402;48.178;11.566;2023-02-07T02:48:53;11.8;;;10.6;;
26824;SDS011;14402;48.178;11.566;2023-02-07T02:49:23;12.0;;;10.7;;
26824;SDS011;14402;48.178;11.566;2023-02-07T02:49:53;12.1;;;10.8;;
26824;SDS011;14402;48.178;11.566;2023-02-07T02:50:24;12.1;;;10.8;;
26824;SDS011;14402;48.178;11.566;2023-02-07T02:50:53;12.1;;;10.8;;
26824;SDS011;14402;48.178;11.566;2023-02-07T02:51:23;11.9;;;10.6;;
26824;SDS011;14402;48.178;11.566;2023-02-07T02:51:53;11.6;;;10.3;;
26824;SDS011;14402;48.178;11.566;2023-02-07T02:52:25;11.6;;;10.3;;
26824;SDS011;14402;48.178;11.566;2023-02-07T02:52:53;11.6;;;10.3;;
26824;SDS011;14402;48.178;11.566;2023-02-07T02:53:23;12.4;;;10.2;;
26824;SDS011;14402;48.178;11.566;2023-02-07T02:53:55;13.1;;;10.2;;
26824;SDS011;14402;48.178;11.566;2023-02-07T02:54:25;13.1;;;10.2;;
26824;SDS011;14402;48.178;11.566;2023-02-07T02:54:54;13.1;;;10.2;;
26824;SDS011;14402;48.178;11.566;2023-02-07T02:55:30;12.5;;;10.4;;
26824;SDS011;14402;48.178;11.566;2023-02-07T02:56:02;11.9;;;10.6;;
26824;SDS011;14402;48.178;11.566;2023-02-07T02:56:28;11.9;;;10.6;;
26824;SDS011;14402;48.178;11.566;2023-02-07T02:57:01;11.9;;;10.6;;
26824;SDS011;14402;48.178;11.566;2023-02-07T02:57:28;12.4;;;10.6;;
26824;SDS011;14402;48.178;11.566;2023-02-07T02:57:56;12.8;;;10.5;;
26824;SDS011;14402;48.178;11.566;2023-02-07T02:58:25;12.8;;;10.5;;
26824;SDS011;14402;48.178;11.566;2023-02-07T02:58:59;12.8;;;10.5;;